sensor_id;sensor_type;location;lat;lon;timestamp;P1;durP1;ratioP1;P2;durP2;ratioP2
31386;SDS011;69978;50.096;8.448;2024-02-21T00:02:09;14.02;;;1.90;;
31386;SDS011;69978;50.096;8.448;2024-02-21T00:04:35;14.00;;;2.20;;
31386;SDS011;69978;50.096;8.448;2024-02-21T00:07:01;14.32;;;2.22;;
31386;SDS011;69978;50.096;8.448;2024-02-21T00:09:27;11.27;;;1.80;;
31386;SDS011;69978;50.096;8.448;2024-02-21T00:11:53;11.88;;;1.73;;
31386;SDS011;69978;50.096;8.448;2024-02-21T00:14:18;19.48;;;1.98;;
31386;SDS011;69978;50.096;8.448;2024-02-21T00:16:44;15.70;;;1.95;;
31386;SDS011;69978;50.096;8.448;2024-02-21T00:19:09;12.48;;;1.88;;
31386;SDS011;69978;50.096;8.448;2024-02-21T00:21:35;11.35;;;2.13;;
31386;SDS011;69978;50.096;8.448;2024-02-21T00:24:00;18.35;;;2.38;;
31386;SDS011;69978;50.096;8.448;2024-02-21T00:26:26;15.80;;;2.10;;
31386;SDS011;69978;50.096;8.448;2024-02-21T00:28:52;15.77;;;2.03;;
31386;SDS011;69978;50.096;8.448;2024-02-21T00:31:17;16.27;;;2.17;;
31386;SDS011;69978;50.096;8.448;2024-02-21T00:33:43;9.50;;;1.90;;
31386;SDS011;69978;50.096;8.448;2024-02-21T00:36:09;10.13;;;2.00;;
31386;SDS011;69978;50.096;8.448;2024-02-21T00:38:34;15.23;;;2.50;;
31386;SDS011;69978;50.096;8.448;2024-02-21T00:41:00;17.65;;;2.58;;
31386;SDS011;69978;50.096;8.448;2024-02-21T00:43:25;12.80;;;2.20;;
31386;SDS011;69978;50.096;8.448;2024-02-21T00:45:51;20.65;;;2.90;;
31386;SDS011;69978;50.096;8.448;2024-02-21T00:48:16;18.15;;;2.78;;
31386;SDS011;69978;50.096;8.448;2024-02-21T00:50:42;12.52;;;2.20;;
31386;SDS011;69978;50.096;8.448;2024-02-21T00:53:07;11.45;;;2.08;;
31386;SDS011;69978;50.096;8.448;2024-02-21T00:55:34;20.70;;;3.40;;
31386;SDS011;69978;50.096;8.448;2024-02-21T00:58:00;15.20;;;2.92;;
31386;SDS011;69978;50.096;8.448;2024-02-21T01:00:25;16.75;;;2.80;;
31386;SDS011;69978;50.096;8.448;2024-02-21T01:02:51;13.60;;;2.92;;
31386;SDS011;69978;50.096;8.448;2024-02-21T01:05:16;16.13;;;2.55;;
31386;SDS011;69978;50.096;8.448;2024-02-21T01:07:42;15.00;;;2.95;;
31386;SDS011;69978;50.096;8.448;2024-02-21T01:10:08;13.85;;;2.65;;
31386;SDS011;69978;50.096;8.448;2024-02-21T01:12:34;16.80;;;2.47;;
31386;SDS011;69978;50.096;8.448;2024-02-21T01:14:59;15.48;;;2.67;;
31386;SDS011;69978;50.096;8.448;2024-02-21T01:17:25;18.98;;;2.90;;
31386;SDS011;69978;50.096;8.448;2024-02-21T01:19:50;13.05;;;2.90;;
31386;SDS011;69978;50.096;8.448;2024-02-21T01:22:16;9.30;;;2.28;;
31386;SDS011;69978;50.096;8.448;2024-02-21T01:24:42;13.98;;;2.17;;
31386;SDS011;69978;50.096;8.448;2024-02-21T01:27:08;17.95;;;2.72;;
31386;SDS011;69978;50.096;8.448;2024-02-21T01:29:34;17.58;;;2.40;;
31386;SDS011;69978;50.096;8.448;2024-02-21T01:32:00;12.52;;;2.42;;
31386;SDS011;69978;50.096;8.448;2024-02-21T01:34:25;8.50;;;2.30;;
31386;SDS011;69978;50.096;8.448;2024-02-21T01:36:51;12.90;;;2.40;;
31386;SDS011;69978;50.096;8.448;2024-02-21T01:39:17;13.20;;;1.95;;
31386;SDS011;69978;50.096;8.448;2024-02-21T01:41:42;13.75;;;2.38;;
31386;SDS011;69978;50.096;8.448;2024-02-21T01:44:08;11.57;;;2.20;;
31386;SDS011;69978;50.096;8.448;2024-02-21T01:46:33;14.55;;;2.60;;
31386;SDS011;69978;50.096;8.448;2024-02-21T01:49:00;14.75;;;2.42;;
31386;SDS011;69978;50.096;8.448;2024-02-21T01:51:26;12.13;;;2.28;;
31386;SDS011;69978;50.096;8.448;2024-02-21T01:53:53;13.02;;;2.00;;
31386;SDS011;69978;50.096;8.448;2024-02-21T01:56:20;10.98;;;2.15;;
31386;SDS011;69978;50.096;8.448;2024-02-21T01:58:46;15.25;;;2.42;;
31386;SDS011;69978;50.096;8.448;2024-02-21T02:01:13;14.23;;;2.55;;
31386;SDS011;69978;50.096;8.448;2024-02-21T02:03:39;10.57;;;2.60;;
31386;SDS011;69978;50.096;8.448;2024-02-21T02:06:05;9.93;;;1.85;;
31386;SDS011;69978;50.096;8.448;2024-02-21T02:08:34;10.63;;;2.05;;
31386;SDS011;69978;50.096;8.448;2024-02-21T02:11:00;10.73;;;2.15;;
31386;SDS011;69978;50.096;8.448;2024-02-21T02:13:26;10.52;;;2.25;;
31386;SDS011;69978;50.096;8.448;2024-02-21T02:15:51;14.15;;;2.22;;
31386;SDS011;69978;50.096;8.448;2024-02-21T02:18:17;14.68;;;2.50;;
31386;SDS011;69978;50.096;8.448;2024-02-21T02:20:44;10.75;;;1.77;;
31386;SDS011;69978;50.096;8.448;2024-02-21T02:23:26;9.40;;;2.03;;
31386;SDS011;69978;50.096;8.448;2024-02-21T02:25:54;11.93;;;2.25;;
31386;SDS011;69978;50.096;8.448;2024-02-21T02:28:21;12.63;;;2.25;;
31386;SDS011;69978;50.096;8.448;2024-02-21T02:30:47;19.98;;;2.80;;
31386;SDS011;69978;50.096;8.448;2024-02-21T02:33:12;11.77;;;2.63;;
31386;SDS011;69978;50.096;8.448;2024-02-21T02:35:38;14.88;;;2.22;;
31386;SDS011;69978;50.096;8.448;2024-02-21T02:38:04;10.63;;;2.03;;
31386;SDS011;69978;50.096;8.448;2024-02-21T02:40:30;6.05;;;1.90;;
31386;SDS011;69978;50.096;8.448;2024-02-21T02:42:56;15.07;;;2.30;;
31386;SDS011;69978;50.096;8.448;2024-02-21T02:45:22;13.82;;;3.08;;
31386;SDS011;69978;50.096;8.448;2024-02-21T02:47:49;9.57;;;2.30;;
31386;SDS011;69978;50.096;8.448;2024-02-21T02:50:15;14.40;;;2.55;;
31386;SDS011;69978;50.096;8.448;2024-02-21T02:52:40;16.40;;;2.60;;
31386;SDS011;69978;50.096;8.448;2024-02-21T02:55:06;8.30;;;2.00;;
31386;SDS011;69978;50.096;8.448;2024-02-21T02:57:32;9.23;;;2.20;;
31386;SDS011;69978;50.096;8.448;2024-02-21T02:59:58;9.43;;;2.22;;
31386;SDS011;69978;50.096;8.448;2024-02-21T03:02:23;7.50;;;2.20;;
31386;SDS011;69978;50.096;8.448;2024-02-21T03:04:49;9.10;;;1.83;;
31386;SDS011;69978;50.096;8.448;2024-02-21T03:07:15;10.40;;;2.65;;
31386;SDS011;69978;50.096;8.448;2024-02-21T03:09:41;12.48;;;2.30;;
31386;SDS011;69978;50.096;8.448;2024-02-21T03:12:08;12.85;;;2.08;;
31386;SDS011;69978;50.096;8.448;2024-02-21T03:14:34;17.95;;;2.67;;
31386;SDS011;69978;50.096;8.448;2024-02-21T03:17:00;12.93;;;1.98;;
31386;SDS011;69978;50.096;8.448;2024-02-21T03:19:26;12.15;;;2.33;;
31386;SDS011;69978;50.096;8.448;2024-02-21T03:21:52;11.20;;;1.90;;
31386;SDS011;69978;50.096;8.448;2024-02-21T03:24:20;10.02;;;2.05;;
31386;SDS011;69978;50.096;8.448;2024-02-21T03:26:46;9.85;;;2.08;;
31386;SDS011;69978;50.096;8.448;2024-02-21T03:29:14;13.32;;;2.20;;
31386;SDS011;69978;50.096;8.448;2024-02-21T03:31:40;9.02;;;1.92;;
31386;SDS011;69978;50.096;8.448;2024-02-21T03:34:06;15.90;;;2.05;;
31386;SDS011;69978;50.096;8.448;2024-02-21T03:36:32;9.52;;;2.03;;
31386;SDS011;69978;50.096;8.448;2024-02-21T03:38:57;8.45;;;2.10;;
31386;SDS011;69978;50.096;8.448;2024-02-21T03:41:23;11.63;;;2.15;;
31386;SDS011;69978;50.096;8.448;2024-02-21T03:43:49;13.60;;;2.17;;
31386;SDS011;69978;50.096;8.448;2024-02-21T03:46:14;10.68;;;1.88;;
31386;SDS011;69978;50.096;8.448;2024-02-21T03:48:40;12.38;;;2.28;;
31386;SDS011;69978;50.096;8.448;2024-02-21T03:51:06;7.95;;;2.13;;
31386;SDS011;69978;50.096;8.448;2024-02-21T03:53:32;12.70;;;2.38;;
31386;SDS011;69978;50.096;8.448;2024-02-21T03:55:57;14.00;;;2.45;;
31386;SDS011;69978;50.096;8.448;2024-02-21T03:58:27;12.02;;;2.30;;
31386;SDS011;69978;50.096;8.448;2024-02-21T04:00:53;18.35;;;3.15;;
31386;SDS011;69978;50.096;8.448;2024-02-21T04:03:19;17.13;;;2.50;;
31386;SDS011;69978;50.096;8.448;2024-02-21T04:05:44;14.30;;;2.75;;
31386;SDS011;69978;50.096;8.448;2024-02-21T04:08:11;13.77;;;2.60;;
31386;SDS011;69978;50.096;8.448;2024-02-21T04:10:37;12.82;;;2.30;;
31386;SDS011;69978;50.096;8.448;2024-02-21T04:13:03;11.27;;;2.40;;
31386;SDS011;69978;50.096;8.448;2024-02-21T04:15:30;11.40;;;2.20;;
31386;SDS011;69978;50.096;8.448;2024-02-21T04:17:55;7.65;;;2.05;;
31386;SDS011;69978;50.096;8.448;2024-02-21T04:20:21;14.38;;;2.65;;
31386;SDS011;69978;50.096;8.448;2024-02-21T04:22:46;13.55;;;2.42;;
31386;SDS011;69978;50.096;8.448;2024-02-21T04:25:12;15.68;;;2.50;;
31386;SDS011;69978;50.096;8.448;2024-02-21T04:27:38;10.35;;;2.40;;
31386;SDS011;69978;50.096;8.448;2024-02-21T04:30:04;16.88;;;2.90;;
31386;SDS011;69978;50.096;8.448;2024-02-21T04:32:31;11.45;;;2.50;;
31386;SDS011;69978;50.096;8.448;2024-02-21T04:34:57;15.40;;;2.65;;
31386;SDS011;69978;50.096;8.448;2024-02-21T04:37:22;11.88;;;2.30;;
31386;SDS011;69978;50.096;8.448;2024-02-21T04:39:49;12.88;;;2.42;;
31386;SDS011;69978;50.096;8.448;2024-02-21T04:42:15;12.23;;;2.20;;
31386;SDS011;69978;50.096;8.448;2024-02-21T04:44:40;19.73;;;3.00;;
31386;SDS011;69978;50.096;8.448;2024-02-21T04:47:06;14.50;;;2.92;;
31386;SDS011;69978;50.096;8.448;2024-02-21T04:49:32;15.68;;;2.85;;
31386;SDS011;69978;50.096;8.448;2024-02-21T04:51:58;13.75;;;2.65;;
31386;SDS011;69978;50.096;8.448;2024-02-21T04:54:24;11.60;;;2.53;;
31386;SDS011;69978;50.096;8.448;2024-02-21T04:56:50;12.75;;;2.67;;
31386;SDS011;69978;50.096;8.448;2024-02-21T04:59:16;11.65;;;2.50;;
31386;SDS011;69978;50.096;8.448;2024-02-21T05:01:42;11.73;;;2.60;;
31386;SDS011;69978;50.096;8.448;2024-02-21T05:04:07;10.63;;;3.00;;
31386;SDS011;69978;50.096;8.448;2024-02-21T05:06:40;11.57;;;2.42;;
31386;SDS011;69978;50.096;8.448;2024-02-21T05:09:06;15.38;;;3.00;;
31386;SDS011;69978;50.096;8.448;2024-02-21T05:11:33;15.50;;;2.78;;
31386;SDS011;69978;50.096;8.448;2024-02-21T05:13:59;11.80;;;2.92;;
31386;SDS011;69978;50.096;8.448;2024-02-21T05:16:25;11.80;;;2.83;;
31386;SDS011;69978;50.096;8.448;2024-02-21T05:18:50;14.43;;;2.65;;
31386;SDS011;69978;50.096;8.448;2024-02-21T05:21:16;12.95;;;2.60;;
31386;SDS011;69978;50.096;8.448;2024-02-21T05:23:41;10.07;;;2.80;;
31386;SDS011;69978;50.096;8.448;2024-02-21T05:26:07;15.35;;;2.50;;
31386;SDS011;69978;50.096;8.448;2024-02-21T05:28:34;8.70;;;2.25;;
31386;SDS011;69978;50.096;8.448;2024-02-21T05:30:59;9.98;;;2.28;;
31386;SDS011;69978;50.096;8.448;2024-02-21T05:33:25;15.23;;;2.88;;
31386;SDS011;69978;50.096;8.448;2024-02-21T05:35:51;10.40;;;2.65;;
31386;SDS011;69978;50.096;8.448;2024-02-21T05:38:17;11.48;;;2.22;;
31386;SDS011;69978;50.096;8.448;2024-02-21T05:40:42;14.13;;;2.38;;
31386;SDS011;69978;50.096;8.448;2024-02-21T05:43:09;9.32;;;2.35;;
31386;SDS011;69978;50.096;8.448;2024-02-21T05:45:35;13.07;;;2.28;;
31386;SDS011;69978;50.096;8.448;2024-02-21T05:48:01;8.98;;;2.20;;
31386;SDS011;69978;50.096;8.448;2024-02-21T05:50:28;10.27;;;2.72;;
31386;SDS011;69978;50.096;8.448;2024-02-21T05:52:54;7.43;;;2.40;;
31386;SDS011;69978;50.096;8.448;2024-02-21T05:55:23;11.23;;;2.38;;
31386;SDS011;69978;50.096;8.448;2024-02-21T05:57:49;15.32;;;2.95;;
31386;SDS011;69978;50.096;8.448;2024-02-21T06:00:15;16.83;;;2.95;;
31386;SDS011;69978;50.096;8.448;2024-02-21T06:02:41;10.80;;;2.50;;
31386;SDS011;69978;50.096;8.448;2024-02-21T06:05:07;11.13;;;2.40;;
31386;SDS011;69978;50.096;8.448;2024-02-21T06:07:34;16.70;;;2.92;;
31386;SDS011;69978;50.096;8.448;2024-02-21T06:09:59;16.73;;;2.78;;
31386;SDS011;69978;50.096;8.448;2024-02-21T06:12:26;12.77;;;2.75;;
31386;SDS011;69978;50.096;8.448;2024-02-21T06:14:52;9.18;;;2.50;;
31386;SDS011;69978;50.096;8.448;2024-02-21T06:17:17;14.73;;;3.00;;
31386;SDS011;69978;50.096;8.448;2024-02-21T06:19:43;12.20;;;2.88;;
31386;SDS011;69978;50.096;8.448;2024-02-21T06:22:09;10.65;;;1.92;;
31386;SDS011;69978;50.096;8.448;2024-02-21T06:24:35;11.48;;;2.75;;
31386;SDS011;69978;50.096;8.448;2024-02-21T06:27:02;13.30;;;2.45;;
31386;SDS011;69978;50.096;8.448;2024-02-21T06:29:33;12.02;;;3.03;;
31386;SDS011;69978;50.096;8.448;2024-02-21T06:32:00;15.00;;;2.95;;
31386;SDS011;69978;50.096;8.448;2024-02-21T06:34:25;14.77;;;2.60;;
31386;SDS011;69978;50.096;8.448;2024-02-21T06:36:51;10.20;;;2.42;;
31386;SDS011;69978;50.096;8.448;2024-02-21T06:39:17;14.15;;;2.38;;
31386;SDS011;69978;50.096;8.448;2024-02-21T06:41:42;15.60;;;2.40;;
31386;SDS011;69978;50.096;8.448;2024-02-21T06:44:08;18.05;;;2.83;;
31386;SDS011;69978;50.096;8.448;2024-02-21T06:46:34;12.02;;;2.40;;
31386;SDS011;69978;50.096;8.448;2024-02-21T06:49:00;7.38;;;2.25;;
31386;SDS011;69978;50.096;8.448;2024-02-21T06:51:26;7.88;;;2.42;;
31386;SDS011;69978;50.096;8.448;2024-02-21T06:53:52;9.27;;;2.42;;
31386;SDS011;69978;50.096;8.448;2024-02-21T06:56:18;13.20;;;2.95;;
31386;SDS011;69978;50.096;8.448;2024-02-21T06:58:44;11.63;;;2.90;;
31386;SDS011;69978;50.096;8.448;2024-02-21T07:01:10;19.65;;;3.00;;
31386;SDS011;69978;50.096;8.448;2024-02-21T07:03:36;11.43;;;3.17;;
31386;SDS011;69978;50.096;8.448;2024-02-21T07:06:02;12.02;;;2.75;;
31386;SDS011;69978;50.096;8.448;2024-02-21T07:08:28;11.75;;;3.53;;
31386;SDS011;69978;50.096;8.448;2024-02-21T07:10:53;18.92;;;3.40;;
31386;SDS011;69978;50.096;8.448;2024-02-21T07:13:19;14.20;;;3.80;;
31386;SDS011;69978;50.096;8.448;2024-02-21T07:15:45;17.85;;;3.33;;
31386;SDS011;69978;50.096;8.448;2024-02-21T07:18:11;13.25;;;3.45;;
31386;SDS011;69978;50.096;8.448;2024-02-21T07:20:36;16.52;;;4.05;;
31386;SDS011;69978;50.096;8.448;2024-02-21T07:23:02;18.88;;;3.78;;
31386;SDS011;69978;50.096;8.448;2024-02-21T07:25:28;16.58;;;4.30;;
31386;SDS011;69978;50.096;8.448;2024-02-21T07:27:54;14.63;;;3.75;;
31386;SDS011;69978;50.096;8.448;2024-02-21T07:30:19;18.42;;;4.13;;
31386;SDS011;69978;50.096;8.448;2024-02-21T07:32:45;13.45;;;4.13;;
31386;SDS011;69978;50.096;8.448;2024-02-21T07:35:13;10.85;;;4.10;;
31386;SDS011;69978;50.096;8.448;2024-02-21T07:37:39;19.23;;;4.65;;
31386;SDS011;69978;50.096;8.448;2024-02-21T07:40:14;15.02;;;5.10;;
31386;SDS011;69978;50.096;8.448;2024-02-21T07:42:41;22.15;;;4.22;;
31386;SDS011;69978;50.096;8.448;2024-02-21T07:45:07;13.35;;;4.57;;
31386;SDS011;69978;50.096;8.448;2024-02-21T07:47:33;13.27;;;4.68;;
31386;SDS011;69978;50.096;8.448;2024-02-21T07:49:59;18.05;;;4.75;;
31386;SDS011;69978;50.096;8.448;2024-02-21T07:52:25;16.52;;;4.85;;
31386;SDS011;69978;50.096;8.448;2024-02-21T07:54:50;17.73;;;4.50;;
31386;SDS011;69978;50.096;8.448;2024-02-21T07:57:16;18.25;;;5.53;;
31386;SDS011;69978;50.096;8.448;2024-02-21T07:59:42;22.20;;;4.97;;
31386;SDS011;69978;50.096;8.448;2024-02-21T08:02:07;17.65;;;4.78;;
31386;SDS011;69978;50.096;8.448;2024-02-21T08:04:33;13.13;;;4.10;;
31386;SDS011;69978;50.096;8.448;2024-02-21T08:06:59;16.02;;;4.45;;
31386;SDS011;69978;50.096;8.448;2024-02-21T08:09:27;19.17;;;4.60;;
31386;SDS011;69978;50.096;8.448;2024-02-21T08:11:54;15.98;;;4.80;;
31386;SDS011;69978;50.096;8.448;2024-02-21T08:14:20;17.50;;;4.25;;
31386;SDS011;69978;50.096;8.448;2024-02-21T08:16:46;15.25;;;4.15;;
31386;SDS011;69978;50.096;8.448;2024-02-21T08:19:12;20.33;;;4.78;;
31386;SDS011;69978;50.096;8.448;2024-02-21T08:21:38;10.77;;;3.85;;
31386;SDS011;69978;50.096;8.448;2024-02-21T08:24:04;16.90;;;4.88;;
31386;SDS011;69978;50.096;8.448;2024-02-21T08:26:30;20.80;;;4.97;;
31386;SDS011;69978;50.096;8.448;2024-02-21T08:28:56;14.60;;;4.10;;
31386;SDS011;69978;50.096;8.448;2024-02-21T08:31:26;18.85;;;5.03;;
31386;SDS011;69978;50.096;8.448;2024-02-21T08:33:59;17.88;;;4.57;;
31386;SDS011;69978;50.096;8.448;2024-02-21T08:36:28;17.92;;;5.07;;
31386;SDS011;69978;50.096;8.448;2024-02-21T08:38:58;17.63;;;4.95;;
31386;SDS011;69978;50.096;8.448;2024-02-21T08:41:24;16.15;;;5.40;;
31386;SDS011;69978;50.096;8.448;2024-02-21T08:43:51;16.98;;;5.43;;
31386;SDS011;69978;50.096;8.448;2024-02-21T08:46:17;18.20;;;5.50;;
31386;SDS011;69978;50.096;8.448;2024-02-21T08:48:43;20.85;;;5.90;;
31386;SDS011;69978;50.096;8.448;2024-02-21T08:51:11;24.25;;;4.85;;
31386;SDS011;69978;50.096;8.448;2024-02-21T08:53:37;19.50;;;5.10;;
31386;SDS011;69978;50.096;8.448;2024-02-21T08:56:03;18.25;;;5.25;;
31386;SDS011;69978;50.096;8.448;2024-02-21T08:58:29;14.32;;;4.22;;
31386;SDS011;69978;50.096;8.448;2024-02-21T09:00:55;13.30;;;3.80;;
31386;SDS011;69978;50.096;8.448;2024-02-21T09:03:21;16.90;;;3.85;;
31386;SDS011;69978;50.096;8.448;2024-02-21T09:05:47;17.70;;;3.55;;
31386;SDS011;69978;50.096;8.448;2024-02-21T09:08:13;11.18;;;2.78;;
31386;SDS011;69978;50.096;8.448;2024-02-21T09:10:39;13.68;;;3.33;;
31386;SDS011;69978;50.096;8.448;2024-02-21T09:13:11;13.60;;;2.92;;
31386;SDS011;69978;50.096;8.448;2024-02-21T09:15:39;14.73;;;2.60;;
31386;SDS011;69978;50.096;8.448;2024-02-21T09:18:04;7.35;;;2.03;;
31386;SDS011;69978;50.096;8.448;2024-02-21T09:20:30;8.48;;;2.20;;
31386;SDS011;69978;50.096;8.448;2024-02-21T09:22:56;12.50;;;2.20;;
31386;SDS011;69978;50.096;8.448;2024-02-21T09:25:21;14.07;;;2.05;;
31386;SDS011;69978;50.096;8.448;2024-02-21T09:27:47;7.93;;;2.20;;
31386;SDS011;69978;50.096;8.448;2024-02-21T09:30:13;7.80;;;2.10;;
31386;SDS011;69978;50.096;8.448;2024-02-21T09:32:38;18.08;;;2.78;;
31386;SDS011;69978;50.096;8.448;2024-02-21T09:35:04;15.18;;;2.75;;
31386;SDS011;69978;50.096;8.448;2024-02-21T09:37:30;9.65;;;2.00;;
31386;SDS011;69978;50.096;8.448;2024-02-21T09:39:56;10.63;;;2.33;;
31386;SDS011;69978;50.096;8.448;2024-02-21T09:42:22;12.10;;;2.20;;
31386;SDS011;69978;50.096;8.448;2024-02-21T09:45:46;10.77;;;2.33;;
31386;SDS011;69978;50.096;8.448;2024-02-21T09:48:06;9.23;;;2.20;;
31386;SDS011;69978;50.096;8.448;2024-02-21T09:50:40;10.57;;;2.63;;
31386;SDS011;69978;50.096;8.448;2024-02-21T09:53:09;11.82;;;2.70;;
31386;SDS011;69978;50.096;8.448;2024-02-21T09:55:38;19.92;;;2.45;;
31386;SDS011;69978;50.096;8.448;2024-02-21T09:58:05;23.50;;;2.78;;
31386;SDS011;69978;50.096;8.448;2024-02-21T10:00:37;9.00;;;1.70;;
31386;SDS011;69978;50.096;8.448;2024-02-21T10:03:02;6.10;;;1.85;;
31386;SDS011;69978;50.096;8.448;2024-02-21T10:05:34;8.25;;;1.75;;
31386;SDS011;69978;50.096;8.448;2024-02-21T10:08:00;11.43;;;1.58;;
31386;SDS011;69978;50.096;8.448;2024-02-21T10:10:26;8.98;;;1.80;;
31386;SDS011;69978;50.096;8.448;2024-02-21T10:12:53;11.30;;;1.30;;
31386;SDS011;69978;50.096;8.448;2024-02-21T10:15:23;8.35;;;1.83;;
31386;SDS011;69978;50.096;8.448;2024-02-21T10:17:59;9.48;;;1.40;;
31386;SDS011;69978;50.096;8.448;2024-02-21T10:20:26;13.32;;;1.92;;
31386;SDS011;69978;50.096;8.448;2024-02-21T10:23:01;9.63;;;1.70;;
31386;SDS011;69978;50.096;8.448;2024-02-21T10:25:28;7.35;;;1.50;;
31386;SDS011;69978;50.096;8.448;2024-02-21T10:28:09;8.85;;;1.30;;
31386;SDS011;69978;50.096;8.448;2024-02-21T10:30:51;9.63;;;1.70;;
31386;SDS011;69978;50.096;8.448;2024-02-21T10:33:21;11.07;;;1.55;;
31386;SDS011;69978;50.096;8.448;2024-02-21T10:35:49;9.50;;;1.20;;
31386;SDS011;69978;50.096;8.448;2024-02-21T10:38:17;6.43;;;1.23;;
31386;SDS011;69978;50.096;8.448;2024-02-21T10:40:43;7.38;;;1.40;;
31386;SDS011;69978;50.096;8.448;2024-02-21T10:43:12;6.53;;;1.33;;
31386;SDS011;69978;50.096;8.448;2024-02-21T10:45:43;5.10;;;0.98;;
31386;SDS011;69978;50.096;8.448;2024-02-21T10:48:12;11.57;;;1.42;;
31386;SDS011;69978;50.096;8.448;2024-02-21T10:59:06;9.23;;;1.70;;
31386;SDS011;69978;50.096;8.448;2024-02-21T11:01:39;13.23;;;1.50;;
31386;SDS011;69978;50.096;8.448;2024-02-21T11:04:06;6.45;;;1.02;;
31386;SDS011;69978;50.096;8.448;2024-02-21T11:06:37;7.55;;;0.88;;
31386;SDS011;69978;50.096;8.448;2024-02-21T11:09:05;7.35;;;0.95;;
31386;SDS011;69978;50.096;8.448;2024-02-21T11:11:33;9.05;;;1.42;;
31386;SDS011;69978;50.096;8.448;2024-02-21T11:14:11;5.63;;;1.02;;
31386;SDS011;69978;50.096;8.448;2024-02-21T11:16:43;6.03;;;1.60;;
31386;SDS011;69978;50.096;8.448;2024-02-21T11:19:19;4.82;;;1.50;;
31386;SDS011;69978;50.096;8.448;2024-02-21T11:21:50;7.72;;;1.27;;
31386;SDS011;69978;50.096;8.448;2024-02-21T11:24:29;8.57;;;1.20;;
31386;SDS011;69978;50.096;8.448;2024-02-21T11:27:14;11.30;;;1.35;;
31386;SDS011;69978;50.096;8.448;2024-02-21T11:29:44;6.78;;;1.30;;
31386;SDS011;69978;50.096;8.448;2024-02-21T11:32:15;10.75;;;1.42;;
31386;SDS011;69978;50.096;8.448;2024-02-21T11:34:54;4.80;;;1.13;;
31386;SDS011;69978;50.096;8.448;2024-02-21T11:37:19;9.73;;;1.13;;
31386;SDS011;69978;50.096;8.448;2024-02-21T11:39:45;9.27;;;1.30;;
31386;SDS011;69978;50.096;8.448;2024-02-21T11:42:10;8.20;;;1.50;;
31386;SDS011;69978;50.096;8.448;2024-02-21T11:44:37;11.68;;;1.77;;
31386;SDS011;69978;50.096;8.448;2024-02-21T11:47:04;13.32;;;1.20;;
31386;SDS011;69978;50.096;8.448;2024-02-21T11:49:30;4.95;;;0.90;;
31386;SDS011;69978;50.096;8.448;2024-02-21T11:52:01;7.45;;;0.85;;
31386;SDS011;69978;50.096;8.448;2024-02-21T11:54:31;7.05;;;1.05;;
31386;SDS011;69978;50.096;8.448;2024-02-21T11:56:57;13.27;;;1.10;;
31386;SDS011;69978;50.096;8.448;2024-02-21T11:59:23;5.50;;;1.10;;
31386;SDS011;69978;50.096;8.448;2024-02-21T12:01:49;4.63;;;1.00;;
31386;SDS011;69978;50.096;8.448;2024-02-21T12:04:17;13.20;;;1.02;;
31386;SDS011;69978;50.096;8.448;2024-02-21T12:06:47;9.52;;;1.00;;
31386;SDS011;69978;50.096;8.448;2024-02-21T12:09:16;10.00;;;1.27;;
31386;SDS011;69978;50.096;8.448;2024-02-21T12:11:45;9.40;;;1.05;;
31386;SDS011;69978;50.096;8.448;2024-02-21T12:14:15;10.98;;;1.30;;
31386;SDS011;69978;50.096;8.448;2024-02-21T12:16:41;7.30;;;1.17;;
31386;SDS011;69978;50.096;8.448;2024-02-21T12:19:09;10.30;;;1.48;;
31386;SDS011;69978;50.096;8.448;2024-02-21T12:21:36;8.70;;;1.15;;
31386;SDS011;69978;50.096;8.448;2024-02-21T12:24:14;8.77;;;1.17;;
31386;SDS011;69978;50.096;8.448;2024-02-21T12:26:41;6.63;;;1.08;;
31386;SDS011;69978;50.096;8.448;2024-02-21T12:29:09;4.47;;;0.90;;
31386;SDS011;69978;50.096;8.448;2024-02-21T12:31:35;6.22;;;1.17;;
31386;SDS011;69978;50.096;8.448;2024-02-21T12:34:04;7.60;;;0.85;;
31386;SDS011;69978;50.096;8.448;2024-02-21T12:36:33;6.30;;;1.15;;
31386;SDS011;69978;50.096;8.448;2024-02-21T12:38:59;4.70;;;1.05;;
31386;SDS011;69978;50.096;8.448;2024-02-21T12:41:26;14.40;;;1.15;;
31386;SDS011;69978;50.096;8.448;2024-02-21T12:43:52;8.00;;;1.52;;
31386;SDS011;69978;50.096;8.448;2024-02-21T12:46:18;7.55;;;1.17;;
31386;SDS011;69978;50.096;8.448;2024-02-21T12:48:44;6.50;;;0.98;;
31386;SDS011;69978;50.096;8.448;2024-02-21T12:51:09;5.50;;;0.90;;
31386;SDS011;69978;50.096;8.448;2024-02-21T12:53:35;8.48;;;1.15;;
31386;SDS011;69978;50.096;8.448;2024-02-21T12:56:01;3.95;;;0.90;;
31386;SDS011;69978;50.096;8.448;2024-02-21T12:58:30;10.70;;;1.13;;
31386;SDS011;69978;50.096;8.448;2024-02-21T13:00:56;5.80;;;1.50;;
31386;SDS011;69978;50.096;8.448;2024-02-21T13:03:22;8.32;;;1.20;;
31386;SDS011;69978;50.096;8.448;2024-02-21T13:05:47;9.18;;;1.48;;
31386;SDS011;69978;50.096;8.448;2024-02-21T13:08:13;6.25;;;1.20;;
31386;SDS011;69978;50.096;8.448;2024-02-21T13:10:39;7.15;;;1.33;;
31386;SDS011;69978;50.096;8.448;2024-02-21T13:13:04;6.15;;;1.13;;
31386;SDS011;69978;50.096;8.448;2024-02-21T13:15:30;11.50;;;1.40;;
31386;SDS011;69978;50.096;8.448;2024-02-21T13:17:56;10.98;;;1.10;;
31386;SDS011;69978;50.096;8.448;2024-02-21T13:20:22;6.40;;;1.00;;
31386;SDS011;69978;50.096;8.448;2024-02-21T13:22:48;7.82;;;1.40;;
31386;SDS011;69978;50.096;8.448;2024-02-21T13:25:14;8.65;;;1.30;;
31386;SDS011;69978;50.096;8.448;2024-02-21T13:27:43;9.40;;;1.42;;
31386;SDS011;69978;50.096;8.448;2024-02-21T13:30:09;11.07;;;1.33;;
31386;SDS011;69978;50.096;8.448;2024-02-21T13:32:35;9.32;;;1.05;;
31386;SDS011;69978;50.096;8.448;2024-02-21T13:35:01;8.43;;;1.17;;
31386;SDS011;69978;50.096;8.448;2024-02-21T13:37:28;7.25;;;1.20;;
31386;SDS011;69978;50.096;8.448;2024-02-21T13:39:54;14.68;;;1.45;;
31386;SDS011;69978;50.096;8.448;2024-02-21T13:42:20;5.82;;;1.15;;
31386;SDS011;69978;50.096;8.448;2024-02-21T13:44:45;7.57;;;1.23;;
31386;SDS011;69978;50.096;8.448;2024-02-21T13:47:12;5.18;;;0.95;;
31386;SDS011;69978;50.096;8.448;2024-02-21T13:49:39;15.18;;;1.55;;
31386;SDS011;69978;50.096;8.448;2024-02-21T13:52:05;8.05;;;1.23;;
31386;SDS011;69978;50.096;8.448;2024-02-21T13:54:31;6.82;;;1.08;;
31386;SDS011;69978;50.096;8.448;2024-02-21T13:56:59;8.18;;;0.90;;
31386;SDS011;69978;50.096;8.448;2024-02-21T13:59:25;11.65;;;1.08;;
31386;SDS011;69978;50.096;8.448;2024-02-21T14:01:51;6.32;;;1.10;;
31386;SDS011;69978;50.096;8.448;2024-02-21T14:04:17;8.98;;;1.17;;
31386;SDS011;69978;50.096;8.448;2024-02-21T14:06:42;7.45;;;1.52;;
31386;SDS011;69978;50.096;8.448;2024-02-21T14:09:09;2.13;;;0.55;;
31386;SDS011;69978;50.096;8.448;2024-02-21T14:11:35;9.20;;;1.35;;
31386;SDS011;69978;50.096;8.448;2024-02-21T14:14:00;6.82;;;1.00;;
31386;SDS011;69978;50.096;8.448;2024-02-21T14:16:26;7.03;;;1.08;;
31386;SDS011;69978;50.096;8.448;2024-02-21T14:18:52;8.60;;;1.05;;
31386;SDS011;69978;50.096;8.448;2024-02-21T14:21:19;9.13;;;0.93;;
31386;SDS011;69978;50.096;8.448;2024-02-21T14:23:44;5.20;;;0.90;;
31386;SDS011;69978;50.096;8.448;2024-02-21T14:26:10;8.68;;;1.42;;
31386;SDS011;69978;50.096;8.448;2024-02-21T14:28:39;6.70;;;0.70;;
31386;SDS011;69978;50.096;8.448;2024-02-21T14:31:06;7.68;;;0.80;;
31386;SDS011;69978;50.096;8.448;2024-02-21T14:33:34;7.22;;;0.80;;
31386;SDS011;69978;50.096;8.448;2024-02-21T14:36:00;4.18;;;0.60;;
31386;SDS011;69978;50.096;8.448;2024-02-21T14:38:27;6.90;;;1.00;;
31386;SDS011;69978;50.096;8.448;2024-02-21T14:40:53;5.10;;;0.85;;
31386;SDS011;69978;50.096;8.448;2024-02-21T14:43:18;7.28;;;1.08;;
31386;SDS011;69978;50.096;8.448;2024-02-21T14:45:46;7.97;;;0.90;;